Aviation Digital Data Service (ADDS)

Output produced by METARs form (2310 UTC 23 March 2019)
found at http://www.aviationweather.gov/metar/data/
 
METAR text: KJAN 232254Z 09007KT 10SM BKN250 23/03 A3013 RMK AO2 SLP202 T02280033
Conditions at: KJAN (JACKSON , MS, US) observed 2254 UTC 23 March 2019
Temperature: 22.8°C (73°F)
Dewpoint: 3.3°C (38°F) [RH = 28%]
Pressure (altimeter): 30.13 inches Hg (1020.4 mb)
[Sea-level pressure: 1020.2 mb]
Winds: from the E (90 degrees) at 8 MPH (7 knots; 3.6 m/s)
Visibility: 10 or more miles (16+ km)
Ceiling: 25000 feet AGL
Clouds: broken clouds at 25000 feet AGL
Weather: no significant weather observed at this time

METAR text: KJAN 232154Z 17007KT 10SM BKN250 23/03 A3013 RMK AO2 SLP202 T02330028
Conditions at: KJAN (JACKSON , MS, US) observed 2154 UTC 23 March 2019
Temperature: 23.3°C (74°F)
Dewpoint: 2.8°C (37°F) [RH = 26%]
Pressure (altimeter): 30.13 inches Hg (1020.4 mb)
[Sea-level pressure: 1020.2 mb]
Winds: from the S (170 degrees) at 8 MPH (7 knots; 3.6 m/s)
Visibility: 10 or more miles (16+ km)
Ceiling: 25000 feet AGL
Clouds: broken clouds at 25000 feet AGL
Weather: no significant weather observed at this time

METAR text: KJAN 232054Z 14008KT 10SM BKN250 24/03 A3015 RMK AO2 SLP208 T02390033 56024
Conditions at: KJAN (JACKSON , MS, US) observed 2054 UTC 23 March 2019
Temperature: 23.9°C (75°F)
Dewpoint: 3.3°C (38°F) [RH = 26%]
Pressure (altimeter): 30.15 inches Hg (1021.1 mb)
[Sea-level pressure: 1020.8 mb]
Winds: from the SE (140 degrees) at 9 MPH (8 knots; 4.1 m/s)
Visibility: 10 or more miles (16+ km)
Ceiling: 25000 feet AGL
Clouds: broken clouds at 25000 feet AGL
Weather: no significant weather observed at this time

METAR text: KJAN 231954Z VRB06KT 10SM BKN250 24/02 A3017 RMK AO2 SLP215 T02390022
Conditions at: KJAN (JACKSON , MS, US) observed 1954 UTC 23 March 2019
Temperature: 23.9°C (75°F)
Dewpoint: 2.2°C (36°F) [RH = 24%]
Pressure (altimeter): 30.17 inches Hg (1021.8 mb)
[Sea-level pressure: 1021.5 mb]
Winds: variable direction winds at 7 MPH (6 knots; 3.1 m/s)
Visibility: 10 or more miles (16+ km)
Ceiling: 25000 feet AGL
Clouds: broken clouds at 25000 feet AGL
Weather: no significant weather observed at this time

METAR text: KJAN 231854Z 15009KT 10SM BKN250 24/02 A3019 RMK AO2 SLP222 T02390022
Conditions at: KJAN (JACKSON , MS, US) observed 1854 UTC 23 March 2019
Temperature: 23.9°C (75°F)
Dewpoint: 2.2°C (36°F) [RH = 24%]
Pressure (altimeter): 30.19 inches Hg (1022.4 mb)
[Sea-level pressure: 1022.2 mb]
Winds: from the SSE (150 degrees) at 10 MPH (9 knots; 4.6 m/s)
Visibility: 10 or more miles (16+ km)
Ceiling: 25000 feet AGL
Clouds: broken clouds at 25000 feet AGL
Weather: no significant weather observed at this time

METAR text: KJAN 231754Z VRB06KT 10SM BKN250 22/03 A3022 RMK AO2 SLP233 T02220028 10228 20033 58009
Conditions at: KJAN (JACKSON , MS, US) observed 1754 UTC 23 March 2019
Temperature: 22.2°C (72°F)
Dewpoint: 2.8°C (37°F) [RH = 28%]
Pressure (altimeter): 30.22 inches Hg (1023.5 mb)
[Sea-level pressure: 1023.3 mb]
Winds: variable direction winds at 7 MPH (6 knots; 3.1 m/s)
Visibility: 10 or more miles (16+ km)
Ceiling: 25000 feet AGL
Clouds: broken clouds at 25000 feet AGL
Weather: no significant weather observed at this time

METAR text: KJAN 231654Z VRB04KT 10SM BKN250 21/03 A3025 RMK AO2 SLP240 T02110028
Conditions at: KJAN (JACKSON , MS, US) observed 1654 UTC 23 March 2019
Temperature: 21.1°C (70°F)
Dewpoint: 2.8°C (37°F) [RH = 30%]
Pressure (altimeter): 30.25 inches Hg (1024.5 mb)
[Sea-level pressure: 1024.0 mb]
Winds: variable direction winds at 5 MPH (4 knots; 2.1 m/s)
Visibility: 10 or more miles (16+ km)
Ceiling: 25000 feet AGL
Clouds: broken clouds at 25000 feet AGL
Weather: no significant weather observed at this time

METAR text: KJAN 231554Z 14009KT 10SM BKN250 19/03 A3025 RMK AO2 SLP243 T01940033
Conditions at: KJAN (JACKSON , MS, US) observed 1554 UTC 23 March 2019
Temperature: 19.4°C (67°F)
Dewpoint: 3.3°C (38°F) [RH = 34%]
Pressure (altimeter): 30.25 inches Hg (1024.5 mb)
[Sea-level pressure: 1024.3 mb]
Winds: from the SE (140 degrees) at 10 MPH (9 knots; 4.6 m/s)
Visibility: 10 or more miles (16+ km)
Ceiling: 25000 feet AGL
Clouds: broken clouds at 25000 feet AGL
Weather: no significant weather observed at this time

METAR text: KJAN 231454Z 12007KT 10SM BKN250 18/04 A3025 RMK AO2 SLP242 T01780039 51018
Conditions at: KJAN (JACKSON , MS, US) observed 1454 UTC 23 March 2019
Temperature: 17.8°C (64°F)
Dewpoint: 3.9°C (39°F) [RH = 40%]
Pressure (altimeter): 30.25 inches Hg (1024.5 mb)
[Sea-level pressure: 1024.2 mb]
Winds: from the ESE (120 degrees) at 8 MPH (7 knots; 3.6 m/s)
Visibility: 10 or more miles (16+ km)
Ceiling: 25000 feet AGL
Clouds: broken clouds at 25000 feet AGL
Weather: no significant weather observed at this time

METAR text: KJAN 231354Z COR 00000KT 10SM SCT120 11/07 A3025 RMK AO2 SLP242 T01110067
Conditions at: KJAN (JACKSON , MS, US) observed 1354 UTC 23 March 2019
Temperature: 11.1°C (52°F)
Dewpoint: 6.7°C (44°F) [RH = 74%]
Pressure (altimeter): 30.25 inches Hg (1024.5 mb)
[Sea-level pressure: 1024.2 mb]
Winds: calm
Visibility: 10 or more miles (16+ km)
Ceiling: at least 12,000 feet AGL
Clouds: scattered clouds at 12000 feet AGL
Weather: no significant weather observed at this time

METAR text: KJAN 231254Z 00000KT 10SM FEW120 07/04 A3023 RMK AO2 SLP235 T00670039
Conditions at: KJAN (JACKSON , MS, US) observed 1254 UTC 23 March 2019
Temperature: 6.7°C (44°F)
Dewpoint: 3.9°C (39°F) [RH = 82%]
Pressure (altimeter): 30.23 inches Hg (1023.8 mb)
[Sea-level pressure: 1023.5 mb]
Winds: calm
Visibility: 10 or more miles (16+ km)
Ceiling: at least 12,000 feet AGL
Clouds: few clouds at 12000 feet AGL
Weather: no significant weather observed at this time

METAR text: KJAN 231154Z 00000KT 10SM FEW020 04/02 A3020 RMK AO2 SLP225 T00440022 10083 20033 53019
Conditions at: KJAN (JACKSON , MS, US) observed 1154 UTC 23 March 2019
Temperature: 4.4°C (40°F)
Dewpoint: 2.2°C (36°F) [RH = 86%]
Pressure (altimeter): 30.20 inches Hg (1022.8 mb)
[Sea-level pressure: 1022.5 mb]
Winds: calm
Visibility: 10 or more miles (16+ km)
Ceiling: at least 12,000 feet AGL
Clouds: few clouds at 2000 feet AGL
Weather: no significant weather observed at this time

METAR text: KJAN 231054Z 00000KT 10SM FEW070 04/02 A3018 RMK AO2 SLP217 T00440022
Conditions at: KJAN (JACKSON , MS, US) observed 1054 UTC 23 March 2019
Temperature: 4.4°C (40°F)
Dewpoint: 2.2°C (36°F) [RH = 86%]
Pressure (altimeter): 30.18 inches Hg (1022.1 mb)
[Sea-level pressure: 1021.7 mb]
Winds: calm
Visibility: 10 or more miles (16+ km)
Ceiling: at least 12,000 feet AGL
Clouds: few clouds at 7000 feet AGL
Weather: no significant weather observed at this time

METAR text: KJAN 230954Z AUTO 00000KT 10SM CLR 05/03 A3015 RMK AO2 SLP209 T00500033
Conditions at: KJAN (JACKSON , MS, US) observed 0954 UTC 23 March 2019
Temperature: 5.0°C (41°F)
Dewpoint: 3.3°C (38°F) [RH = 89%]
Pressure (altimeter): 30.15 inches Hg (1021.1 mb)
[Sea-level pressure: 1020.9 mb]
Winds: calm
Visibility: 10 or more miles (16+ km)
Ceiling: at least 12,000 feet AGL
Clouds: sky clear below 12,000 feet AGL
Weather: automated observation with no human augmentation;
there may or may not be significant weather present at this time

METAR text: KJAN 230854Z AUTO 00000KT 10SM CLR 05/03 A3014 RMK AO2 SLP205 T00500033 58003
Conditions at: KJAN (JACKSON , MS, US) observed 0854 UTC 23 March 2019
Temperature: 5.0°C (41°F)
Dewpoint: 3.3°C (38°F) [RH = 89%]
Pressure (altimeter): 30.14 inches Hg (1020.7 mb)
[Sea-level pressure: 1020.5 mb]
Winds: calm
Visibility: 10 or more miles (16+ km)
Ceiling: at least 12,000 feet AGL
Clouds: sky clear below 12,000 feet AGL
Weather: automated observation with no human augmentation;
there may or may not be significant weather present at this time

METAR text: KJAN 230754Z AUTO 00000KT 10SM CLR 06/04 A3015 RMK AO2 SLP207 T00560039
Conditions at: KJAN (JACKSON , MS, US) observed 0754 UTC 23 March 2019
Temperature: 5.6°C (42°F)
Dewpoint: 3.9°C (39°F) [RH = 89%]
Pressure (altimeter): 30.15 inches Hg (1021.1 mb)
[Sea-level pressure: 1020.7 mb]
Winds: calm
Visibility: 10 or more miles (16+ km)
Ceiling: at least 12,000 feet AGL
Clouds: sky clear below 12,000 feet AGL
Weather: automated observation with no human augmentation;
there may or may not be significant weather present at this time

METAR text: KJAN 230654Z AUTO 00000KT 10SM CLR 07/04 A3015 RMK AO2 SLP208 T00670039
Conditions at: KJAN (JACKSON , MS, US) observed 0654 UTC 23 March 2019
Temperature: 6.7°C (44°F)
Dewpoint: 3.9°C (39°F) [RH = 82%]
Pressure (altimeter): 30.15 inches Hg (1021.1 mb)
[Sea-level pressure: 1020.8 mb]
Winds: calm
Visibility: 10 or more miles (16+ km)
Ceiling: at least 12,000 feet AGL
Clouds: sky clear below 12,000 feet AGL
Weather: automated observation with no human augmentation;
there may or may not be significant weather present at this time

METAR text: KJAN 230554Z AUTO 00000KT 10SM CLR 08/04 A3015 RMK AO2 SLP208 T00780044 10172 20072 402220028 58004
Conditions at: KJAN (JACKSON , MS, US) observed 0554 UTC 23 March 2019
Temperature: 7.8°C (46°F)
Dewpoint: 4.4°C (40°F) [RH = 79%]
Pressure (altimeter): 30.15 inches Hg (1021.1 mb)
[Sea-level pressure: 1020.8 mb]
Winds: calm
Visibility: 10 or more miles (16+ km)
Ceiling: at least 12,000 feet AGL
Clouds: sky clear below 12,000 feet AGL
Weather: automated observation with no human augmentation;
there may or may not be significant weather present at this time

METAR text: KJAN 230454Z AUTO 00000KT 10SM CLR 08/04 A3016 RMK AO2 SLP210 T00830039
Conditions at: KJAN (JACKSON , MS, US) observed 0454 UTC 23 March 2019
Temperature: 8.3°C (47°F)
Dewpoint: 3.9°C (39°F) [RH = 74%]
Pressure (altimeter): 30.16 inches Hg (1021.4 mb)
[Sea-level pressure: 1021.0 mb]
Winds: calm
Visibility: 10 or more miles (16+ km)
Ceiling: at least 12,000 feet AGL
Clouds: sky clear below 12,000 feet AGL
Weather: automated observation with no human augmentation;
there may or may not be significant weather present at this time

METAR text: KJAN 230354Z 00000KT 10SM CLR 10/04 A3016 RMK AO2 SLP211 T01000044
Conditions at: KJAN (JACKSON , MS, US) observed 0354 UTC 23 March 2019
Temperature: 10.0°C (50°F)
Dewpoint: 4.4°C (40°F) [RH = 68%]
Pressure (altimeter): 30.16 inches Hg (1021.4 mb)
[Sea-level pressure: 1021.1 mb]
Winds: calm
Visibility: 10 or more miles (16+ km)
Ceiling: at least 12,000 feet AGL
Clouds: sky clear below 12,000 feet AGL
Weather: no significant weather observed at this time

METAR text: KJAN 230254Z 00000KT 10SM CLR 10/04 A3016 RMK AO2 SLP212 T01000044 52017
Conditions at: KJAN (JACKSON , MS, US) observed 0254 UTC 23 March 2019
Temperature: 10.0°C (50°F)
Dewpoint: 4.4°C (40°F) [RH = 68%]
Pressure (altimeter): 30.16 inches Hg (1021.4 mb)
[Sea-level pressure: 1021.2 mb]
Winds: calm
Visibility: 10 or more miles (16+ km)
Ceiling: at least 12,000 feet AGL
Clouds: sky clear below 12,000 feet AGL
Weather: no significant weather observed at this time

METAR text: KJAN 230154Z 00000KT 10SM CLR 11/04 A3015 RMK AO2 SLP209 T01110044
Conditions at: KJAN (JACKSON , MS, US) observed 0154 UTC 23 March 2019
Temperature: 11.1°C (52°F)
Dewpoint: 4.4°C (40°F) [RH = 63%]
Pressure (altimeter): 30.15 inches Hg (1021.1 mb)
[Sea-level pressure: 1020.9 mb]
Winds: calm
Visibility: 10 or more miles (16+ km)
Ceiling: at least 12,000 feet AGL
Clouds: sky clear below 12,000 feet AGL
Weather: no significant weather observed at this time

METAR text: KJAN 230054Z 00000KT 10SM CLR 14/03 A3012 RMK AO2 SLP200 T01440033
Conditions at: KJAN (JACKSON , MS, US) observed 0054 UTC 23 March 2019
Temperature: 14.4°C (58°F)
Dewpoint: 3.3°C (38°F) [RH = 47%]
Pressure (altimeter): 30.12 inches Hg (1020.1 mb)
[Sea-level pressure: 1020.0 mb]
Winds: calm
Visibility: 10 or more miles (16+ km)
Ceiling: at least 12,000 feet AGL
Clouds: sky clear below 12,000 feet AGL
Weather: no significant weather observed at this time

METAR text: KJAN 222354Z 04005KT 10SM CLR 18/02 A3011 RMK AO2 SLP196 T01780017 10222 20178 55003
Conditions at: KJAN (JACKSON , MS, US) observed 2354 UTC 22 March 2019
Temperature: 17.8°C (64°F)
Dewpoint: 1.7°C (35°F) [RH = 34%]
Pressure (altimeter): 30.11 inches Hg (1019.7 mb)
[Sea-level pressure: 1019.6 mb]
Winds: from the NE (40 degrees) at 6 MPH (5 knots; 2.6 m/s)
Visibility: 10 or more miles (16+ km)
Ceiling: at least 12,000 feet AGL
Clouds: sky clear below 12,000 feet AGL
Weather: no significant weather observed at this time

METAR text: KJAN 222254Z 07005KT 10SM CLR 21/01 A3011 RMK AO2 SLP194 T02110006
Conditions at: KJAN (JACKSON , MS, US) observed 2254 UTC 22 March 2019
Temperature: 21.1°C (70°F)
Dewpoint: 0.6°C (33°F) [RH = 26%]
Pressure (altimeter): 30.11 inches Hg (1019.7 mb)
[Sea-level pressure: 1019.4 mb]
Winds: from the ENE (70 degrees) at 6 MPH (5 knots; 2.6 m/s)
Visibility: 10 or more miles (16+ km)
Ceiling: at least 12,000 feet AGL
Clouds: sky clear below 12,000 feet AGL
Weather: no significant weather observed at this time

METAR text: KJAN 222154Z 00000KT 10SM CLR 22/02 A3011 RMK AO2 SLP194 T02170017
Conditions at: KJAN (JACKSON , MS, US) observed 2154 UTC 22 March 2019
Temperature: 21.7°C (71°F)
Dewpoint: 1.7°C (35°F) [RH = 27%]
Pressure (altimeter): 30.11 inches Hg (1019.7 mb)
[Sea-level pressure: 1019.4 mb]
Winds: calm
Visibility: 10 or more miles (16+ km)
Ceiling: at least 12,000 feet AGL
Clouds: sky clear below 12,000 feet AGL
Weather: no significant weather observed at this time

METAR text: KJAN 222054Z 00000KT 10SM CLR 22/02 A3012 RMK AO2 SLP197 T02170022 56027
Conditions at: KJAN (JACKSON , MS, US) observed 2054 UTC 22 March 2019
Temperature: 21.7°C (71°F)
Dewpoint: 2.2°C (36°F) [RH = 28%]
Pressure (altimeter): 30.12 inches Hg (1020.1 mb)
[Sea-level pressure: 1019.7 mb]
Winds: calm
Visibility: 10 or more miles (16+ km)
Ceiling: at least 12,000 feet AGL
Clouds: sky clear below 12,000 feet AGL
Weather: no significant weather observed at this time

METAR text: KJAN 221954Z 10SM CLR 21/02 A3014 RMK AO2 SLP203 T02110017
Conditions at: KJAN (JACKSON , MS, US) observed 1954 UTC 22 March 2019
Temperature: 21.1°C (70°F)
Dewpoint: 1.7°C (35°F) [RH = 28%]
Pressure (altimeter): 30.14 inches Hg (1020.7 mb)
[Sea-level pressure: 1020.3 mb]
Winds: missing
Visibility: 10 or more miles (16+ km)
Ceiling: at least 12,000 feet AGL
Clouds: sky clear below 12,000 feet AGL
Weather: no significant weather observed at this time

METAR text: KJAN 221854Z VRB03KT 10SM FEW250 19/02 A3017 RMK AO2 SLP214 T01890017
Conditions at: KJAN (JACKSON , MS, US) observed 1854 UTC 22 March 2019
Temperature: 18.9°C (66°F)
Dewpoint: 1.7°C (35°F) [RH = 32%]
Pressure (altimeter): 30.17 inches Hg (1021.8 mb)
[Sea-level pressure: 1021.4 mb]
Winds: variable direction winds at 3 MPH (3 knots; 1.5 m/s)
Visibility: 10 or more miles (16+ km)
Ceiling: at least 12,000 feet AGL
Clouds: few clouds at 25000 feet AGL
Weather: no significant weather observed at this time

METAR text: KJAN 221754Z 01008KT 10SM FEW250 19/01 A3020 RMK AO2 SLP224 T01890011 10194 20033 58009
Conditions at: KJAN (JACKSON , MS, US) observed 1754 UTC 22 March 2019
Temperature: 18.9°C (66°F)
Dewpoint: 1.1°C (34°F) [RH = 30%]
Pressure (altimeter): 30.20 inches Hg (1022.8 mb)
[Sea-level pressure: 1022.4 mb]
Winds: from the N (10 degrees) at 9 MPH (8 knots; 4.1 m/s)
Visibility: 10 or more miles (16+ km)
Ceiling: at least 12,000 feet AGL
Clouds: few clouds at 25000 feet AGL
Weather: no significant weather observed at this time

METAR text: KJAN 221654Z VRB04KT 10SM CLR 18/00 A3021 RMK AO2 SLP227 T01830000
Conditions at: KJAN (JACKSON , MS, US) observed 1654 UTC 22 March 2019
Temperature: 18.3°C (65°F)
Dewpoint: 0.0°C (32°F) [RH = 29%]
Pressure (altimeter): 30.21 inches Hg (1023.1 mb)
[Sea-level pressure: 1022.7 mb]
Winds: variable direction winds at 5 MPH (4 knots; 2.1 m/s)
Visibility: 10 or more miles (16+ km)
Ceiling: at least 12,000 feet AGL
Clouds: sky clear below 12,000 feet AGL
Weather: no significant weather observed at this time

METAR text: KJAN 221554Z 35004KT 10SM CLR 17/02 A3022 RMK AO2 SLP232 T01670017
Conditions at: KJAN (JACKSON , MS, US) observed 1554 UTC 22 March 2019
Temperature: 16.7°C (62°F)
Dewpoint: 1.7°C (35°F) [RH = 36%]
Pressure (altimeter): 30.22 inches Hg (1023.5 mb)
[Sea-level pressure: 1023.2 mb]
Winds: from the N (350 degrees) at 5 MPH (4 knots; 2.1 m/s)
Visibility: 10 or more miles (16+ km)
Ceiling: at least 12,000 feet AGL
Clouds: sky clear below 12,000 feet AGL
Weather: no significant weather observed at this time

METAR text: KJAN 221454Z 18003KT 10SM CLR 14/04 A3022 RMK AO2 SLP233 T01390044 51013
Conditions at: KJAN (JACKSON , MS, US) observed 1454 UTC 22 March 2019
Temperature: 13.9°C (57°F)
Dewpoint: 4.4°C (40°F) [RH = 53%]
Pressure (altimeter): 30.22 inches Hg (1023.5 mb)
[Sea-level pressure: 1023.3 mb]
Winds: from the S (180 degrees) at 3 MPH (3 knots; 1.5 m/s)
Visibility: 10 or more miles (16+ km)
Ceiling: at least 12,000 feet AGL
Clouds: sky clear below 12,000 feet AGL
Weather: no significant weather observed at this time

METAR text: KJAN 221354Z 00000KT 10SM CLR 10/06 A3022 RMK AO2 SLP232 T01000056
Conditions at: KJAN (JACKSON , MS, US) observed 1354 UTC 22 March 2019
Temperature: 10.0°C (50°F)
Dewpoint: 5.6°C (42°F) [RH = 74%]
Pressure (altimeter): 30.22 inches Hg (1023.5 mb)
[Sea-level pressure: 1023.2 mb]
Winds: calm
Visibility: 10 or more miles (16+ km)
Ceiling: at least 12,000 feet AGL
Clouds: sky clear below 12,000 feet AGL
Weather: no significant weather observed at this time

METAR text: KJAN 221254Z 00000KT 10SM CLR 06/04 A3020 RMK AO2 SLP226 T00560039
Conditions at: KJAN (JACKSON , MS, US) observed 1254 UTC 22 March 2019
Temperature: 5.6°C (42°F)
Dewpoint: 3.9°C (39°F) [RH = 89%]
Pressure (altimeter): 30.20 inches Hg (1022.8 mb)
[Sea-level pressure: 1022.6 mb]
Winds: calm
Visibility: 10 or more miles (16+ km)
Ceiling: at least 12,000 feet AGL
Clouds: sky clear below 12,000 feet AGL
Weather: no significant weather observed at this time

METAR text: KJAN 221154Z 00000KT 10SM CLR 03/02 A3018 RMK AO2 SLP221 T00330017 10089 20028 53014
Conditions at: KJAN (JACKSON , MS, US) observed 1154 UTC 22 March 2019
Temperature: 3.3°C (38°F)
Dewpoint: 1.7°C (35°F) [RH = 89%]
Pressure (altimeter): 30.18 inches Hg (1022.1 mb)
[Sea-level pressure: 1022.1 mb]
Winds: calm
Visibility: 10 or more miles (16+ km)
Ceiling: at least 12,000 feet AGL
Clouds: sky clear below 12,000 feet AGL
Weather: no significant weather observed at this time

Forecast for: KJAN (JACKSON , MS, US)
Text: KJAN 231720Z 2318/2418 15007KT P6SM BKN250
Forecast period: 1800 UTC 23 March 2019 to 1100 UTC 24 March 2019
Forecast type: FROM: standard forecast or significant change
Winds: from the SSE (150 degrees) at 8 MPH (7 knots; 3.6 m/s)
Visibility: 6 or more miles 10+ km)
Ceiling: 25000 feet AGL
Clouds: broken clouds at 25000 feet AGL
Weather: no significant weather forecast for this period
Text: FM241100 17005KT P6SM SCT100 BKN250
Forecast period: 1100 to 1800 UTC 24 March 2019
Forecast type: FROM: standard forecast or significant change
Winds: from the S (170 degrees) at 6 MPH (5 knots; 2.6 m/s)
Visibility: 6 or more miles 10+ km)
Ceiling: 25000 feet AGL
Clouds: scattered clouds at 10000 feet AGL
broken clouds at 25000 feet AGL
Weather: no significant weather forecast for this period